Tiempo atmosférico en la estación meteorológica de Fuente De Cantos, Badajoz (602 m.)



Fecha
DESCASC
Temp. máxima en grados centígrados (hora)
DESCASC
Temp. mínima en grados centígrados (hora)
DESCASC
Temp. media en grados centígrados
DESCASC
Racha de viento máxima en m/sg (hora)
DESCASC
Velocidad máxima media en intervalos de 10 minutos(hora)
DESCASC
Precipitaciones diarias en mm
DESCASC
Precipitaciones de 00:00 a 06:00 en mm
DESCASC
Precipitaciones de 06:00 a 12:00 en mm
DESCASC
Precipitaciones de 12:00 a 18:00 en mm
DESCASC
Precipitaciones de 18:00 a 24:00 en mm
DESCASC
02-04-2020 -- (--) -- (--) -- -- (--) -- (--) -- -- 0 0 0
01-04-2020 11.9 (14:30) 3 (07:10) 7.4 11.94 (15:40) 8.89 (15:40) 1.2 0 0 0.2 1
31-03-2020 13.2 (14:10) 6.3 (00:00) 9.8 11.94 (12:20) 8.33 (12:20) 18 10 2.4 5.2 0.4
30-03-2020 13.8 (14:40) 7.3 (00:00) 10.6 9.17 (20:00) 6.94 (20:00) 7.8 0 0 6 1.8
29-03-2020 16.7 (14:50) 6.4 (00:00) 11.6 6.94 (19:50) 4.72 (19:50) 0 0 0 0 0
28-03-2020 15.6 (14:30) 1.5 (00:00) 8.6 7.22 (05:10) 6.11 (05:10) 0 0 0 0 0
27-03-2020 13 (17:00) 4.3 (00:00) 8.7 8.06 (05:20) 6.39 (22:30) 0 0 0 0 0
26-03-2020 16.8 (16:50) 7 (00:00) 11.9 12.78 (18:30) 8.89 (18:40) 0 0 0 0 0
25-03-2020 17.1 (16:50) 6.8 (00:00) 12 7.78 (17:20) 5.83 (17:20) 0 0 0 0 0
24-03-2020 16.3 (15:10) 5.5 (00:00) 10.9 13.33 (09:50) 10.56 (09:50) 0.2 0 0.2 0 0
23-03-2020 14.7 (14:30) 6.1 (00:00) 10.4 15.56 (16:00) 9.72 (16:10) 3.4 0.2 0 2.2 1
22-03-2020 13 (16:00) 5.1 (07:40) 9 8.61 (14:40) 6.11 (14:50) 0.4 0.4 0 0 0
21-03-2020 11.3 (12:20) 4.3 (00:00) 7.8 11.39 (15:10) 8.89 (15:20) 13.2 11.2 0 0.8 1.2
20-03-2020 14.6 (13:20) 9 (00:00) 11.8 10.56 (21:50) 7.78 (15:20) 15.6 0 0 1.2 14.4
19-03-2020 17.2 (16:20) 6.8 (00:00) 12 7.22 (02:20) 5.83 (02:00) 0 0 0 0 0
18-03-2020 20.4 (16:50) 7.4 (00:00) 13.9 12.5 (06:10) 10.56 (11:00) 0 0 0 0 0
17-03-2020 15.2 (17:40) 2.8 (00:00) 9 13.89 (09:20) 10 (09:20) 0.6 0.4 0.2 0 0
16-03-2020 10.8 (14:20) 0.8 (00:00) 5.8 18.89 (18:30) 13.89 (16:10) 1.6 0 0 0.2 1.4
15-03-2020 20.8 (15:20) 8.4 (00:00) 14.6 11.94 (23:40) 8.89 (22:30) 0 0 0 0 0
14-03-2020 22.4 (16:50) 9 (00:00) 15.7 5 (20:20) 3.61 (20:20) 0 0 0 0 0
13-03-2020 20.4 (16:10) 9.4 (08:10) 14.9 8.61 (15:30) 5 (14:40) 0 0 0 0 0
12-03-2020 24.4 (14:40) 14.2 (00:00) 19.3 10 (10:40) 7.78 (02:30) 0 0 0 0 0
11-03-2020 25.9 (13:40) 13.8 (00:00) 19.8 10.28 (12:40) 8.06 (23:20) 0 0 0 0 0
10-03-2020 24.6 (16:20) 8.1 (00:00) 16.4 6.67 (12:00) 5 (09:10) 0 0 0 0 0
09-03-2020 18.4 (17:00) 5.1 (00:00) 11.7 10.83 (16:10) 7.5 (17:30) 0 0 0 0 0
08-03-2020 18 (15:10) 6.6 (00:00) 12.3 7.78 (15:30) 5.56 (16:00) 0 0 0 0 0
07-03-2020 16.8 (16:20) 2.7 (00:00) 9.7 10.28 (00:30) 6.67 (00:40) 0 0 0 0 0
06-03-2020 13.6 (15:50) 4.6 (00:00) 9.1 15 (10:20) 11.67 (10:20) 0 0 0 0 0
05-03-2020 14 (17:30) 6.1 (00:00) 10 13.89 (16:20) 10.56 (17:50) 0.2 0 0.2 0 0

Gráficas

Temp. máximas Temp. mínimas Temp. medias Precipitaciones Rachas de viento máximas Velocidades máximas media en intervalos de 10 minutos

Datos horarios

Fecha y hora oficial Temperatura (ºC) Velocidad del viento (km/h) Dirección del viento Racha (km/h) Dirección de racha Precipitación (mm) Presión (hPa) Tendencia (hPa) Humedad (%)
2020-04-03 23:00:00 11.9 17 Sudeste 23 Sudeste 0 -- -- 69
2020-04-03 22:00:00 12.3 14 Sudeste 20 Sudeste 0 -- -- 72
2020-04-03 21:00:00 13.7 17 Sudeste 20 Sudeste 0 -- -- 67
2020-04-03 20:00:00 16.1 13 Sudeste 18 Sudeste 0 -- -- 63
2020-04-03 19:00:00 17.7 11 Sudeste 17 Sudeste 0 -- -- 50
2020-04-03 18:00:00 17.6 9 Sudeste 18 Sudeste 0 -- -- 46
2020-04-03 17:00:00 16.6 12 Este 21 Este 0 -- -- 54
2020-04-03 16:00:00 16.7 8 Este 24 Este 0 -- -- 54
2020-04-03 15:00:00 17.2 12 Este 25 Este 0 -- -- 57
2020-04-03 14:00:00 16.7 8 Este 18 Nordeste 0 -- -- 60
2020-04-03 13:00:00 16.3 8 Sudeste 17 Este 0 -- -- 61
2020-04-03 12:00:00 15 4 Nordeste 9 Nordeste 0 -- -- 65
2020-04-03 11:00:00 13 5 Nordeste 9 Nordeste 0 -- -- 79
2020-04-03 10:00:00 10.1 3 Noroeste 6 Sur 0 -- -- 83
2020-04-03 09:00:00 8 6 Sur 7 Sudeste 0 -- -- 86
2020-04-03 08:00:00 8.1 4 Oeste 7 Sur 0 -- -- 86
2020-04-03 07:00:00 8 6 Sudoeste 9 Sudoeste 0 -- -- 85
2020-04-03 06:00:00 8 6 Sudoeste 10 Sudoeste 0 -- -- 84
2020-04-03 05:00:00 7.9 4 Sur 8 Sur 0 -- -- 86
2020-04-03 04:00:00 7.9 5 Sudoeste 9 Sur 0 -- -- 85
2020-04-03 03:00:00 7.3 8 Sudoeste 13 Sudoeste 0 -- -- 85
2020-04-03 02:00:00 7.9 8 Sudoeste 9 Sudoeste 0 -- -- 81
2020-04-03 01:00:00 8.3 7 Sudoeste 9 Sudoeste 0 -- -- 79
2020-04-03 00:00:00 8.5 7 Sudoeste 9 Sudoeste 0 -- -- 77
2020-04-02 23:00:00 9.3 8 Sudoeste 10 Sudoeste 0 -- -- 76
2020-04-02 22:00:00 10 4 Oeste 17 Noroeste 0 -- -- 74
2020-04-02 21:00:00 11 14 Noroeste 18 Noroeste 0 -- -- 74
2020-04-02 20:00:00 13.2 16 Noroeste 24 Norte 0 -- -- 64
2020-04-02 19:00:00 13.7 14 Norte 26 Norte 0 -- -- 62
2020-04-02 18:00:00 13.4 16 Norte 26 Norte 0 -- -- 68
2020-04-02 17:00:00 12.5 18 Norte 27 Norte 0 -- -- 71
2020-04-02 16:00:00 11.1 18 Norte 27 Norte 0 -- -- 72
2020-04-02 15:00:00 11 20 Nordeste 33 Norte 0 -- -- 74
2020-04-02 14:00:00 10.3 18 Norte 28 Norte 0 -- -- 80
2020-04-02 13:00:00 8.7 21 Norte 28 Nordeste 0 -- -- 82
2020-04-02 12:00:00 8.4 19 Norte 28 Noroeste 0 -- -- 86
2020-04-02 11:00:00 8 18 Norte 23 Norte 0 -- -- 95
2020-04-02 10:00:00 6.1 8 Noroeste 11 Norte 0 -- -- 98
2020-04-02 09:00:00 4.9 5 Noroeste 14 Norte 0 -- -- 97
2020-04-02 08:00:00 4.5 9 Norte 12 Noroeste 0 -- -- 96
2020-04-02 07:00:00 4.5 5 Noroeste 12 Noroeste 0 -- -- 96
2020-04-02 06:00:00 5.3 9 Noroeste 11 Noroeste 0 -- -- 95
2020-04-02 05:00:00 5.7 4 Oeste 10 Oeste 0 -- -- 94
2020-04-02 04:00:00 6.4 8 Oeste 16 Sudoeste 0.8 -- -- 94
2020-04-02 03:00:00 -- -- -- -- -- -- -- -- --
2020-04-02 02:00:00 6.6 11 Sudeste 27 Sur 0.6 -- -- 92
2020-04-02 01:00:00 7.4 16 Sur 29 Sudeste 2.4 -- -- 92
2020-04-02 00:00:00 7.6 15 Sur 30 Sur 1 -- -- 91
2020-04-01 23:00:00 8.2 19 Sudeste 33 Sudeste 0 -- -- 84
2020-04-01 22:00:00 8.1 23 Sur 33 Sur 0 -- -- 85
2020-04-01 21:00:00 8 22 Sudeste 31 Sudeste 0 -- -- 85
2020-04-01 20:00:00 8.6 21 Sur 32 Sur 0 -- -- 78
2020-04-01 19:00:00 9.3 22 Sudeste 32 Sur 0 -- -- 77
2020-04-01 18:00:00 9.8 25 Sur 40 Sur 0 -- -- 79
2020-04-01 17:00:00 10.5 24 Sur 35 Sur 0 -- -- 73
2020-04-01 16:00:00 9.5 23 Sur 43 Sur 0.2 -- -- 78
2020-04-01 15:00:00 11.4 21 Sur 33 Sur 0 -- -- 61
2020-04-01 14:00:00 11.4 20 Sur 32 Sudoeste 0 -- -- 69
2020-04-01 13:00:00 9.4 14 Sudoeste 31 Sudoeste 0 -- -- 70
2020-04-01 12:00:00 9.8 19 Sudoeste 27 Sudoeste 0 -- -- 67
2020-04-01 11:00:00 8.4 10 Sudoeste 17 Sudoeste 0 -- -- 75
2020-04-01 10:00:00 5.9 5 Sur 8 Sur 0 -- -- 81
2020-04-01 09:00:00 3.6 5 Sur 6 Sur 0 -- -- 88
2020-04-01 08:00:00 3 6 Sur 8 Sudeste 0 -- -- 93
2020-04-01 07:00:00 3.2 6 Sudeste 7 Sudeste 0 -- -- 92
2020-04-01 06:00:00 3.9 2 Sur 4 Sudoeste 0 -- -- 93
2020-04-01 05:00:00 3.8 4 Sudoeste 13 Sudoeste 0 -- -- 94
2020-04-01 04:00:00 4 10 Sudoeste 12 Sudoeste 0 -- -- 93
2020-04-01 03:00:00 5.2 5 Sudoeste 8 Sudoeste 0 -- -- 93
2020-04-01 02:00:00 5.3 7 Sudoeste 14 Sudoeste 0 -- -- 93
2020-04-01 01:00:00 5.5 6 Sudoeste 13 Oeste 0 -- -- 93
2020-04-01 00:00:00 6.3 8 Sudoeste 13 Sudoeste 0 -- -- 93
2020-03-31 23:00:00 7.1 9 Oeste 22 Oeste 0 -- -- 94
2020-03-31 22:00:00 7 15 Oeste 19 Sudoeste 0 -- -- 90
2020-03-31 21:00:00 8.3 12 Oeste 27 Oeste 0 -- -- 87
2020-03-31 20:00:00 10.6 19 Oeste 31 Oeste 0 -- -- 85
2020-03-31 19:00:00 10.7 13 Sur 31 Sudoeste 0.4 -- -- 90
2020-03-31 18:00:00 9.3 26 Sur 37 Sur 1.2 -- -- 92
2020-03-31 17:00:00 9.8 28 Sur 43 Sur 1.4 -- -- 88
2020-03-31 16:00:00 10.6 19 Sur 35 Sudoeste 1.8 -- -- 93
2020-03-31 15:00:00 11.1 18 Sudoeste 39 Sur 0.8 -- -- 89
2020-03-31 14:00:00 12.8 24 Sur 41 Sur 0 -- -- 85
2020-03-31 13:00:00 12.5 27 Sur 43 Sur 0 -- -- 77
2020-03-31 12:00:00 11.8 25 Sur 37 Sur 0.2 -- -- 83
2020-03-31 11:00:00 10 24 Sur 31 Sur 0 -- -- 89
2020-03-31 10:00:00 9.2 8 Sudoeste 14 Sudoeste 0 -- -- 97
2020-03-31 09:00:00 7.8 5 Sudoeste 22 Oeste 0.2 -- -- 97
2020-03-31 08:00:00 8.1 5 Sudoeste 12 Este 0.8 -- -- 97
2020-03-31 07:00:00 8 10 Este 23 Este 1.2 -- -- 97
2020-03-31 06:00:00 8.1 15 Este 31 Este 5.8 -- -- 96
2020-03-31 05:00:00 8.2 23 Sudeste 34 Sudeste 2.4 -- -- 96
2020-03-31 04:00:00 8.1 26 Sudeste 36 Sudeste 0.8 -- -- 95
2020-03-31 03:00:00 8.1 28 Sudeste 40 Sudeste 1 -- -- 95
2020-03-31 02:00:00 8 27 Sudeste 40 Sudeste 0 -- -- 94
2020-03-31 01:00:00 7.9 24 Sudeste 34 Sudeste 0 -- -- 91
2020-03-31 00:00:00 7.6 18 Este 28 Este 0 -- -- 93
2020-03-30 23:00:00 7.6 15 Este 27 Sudeste 0 -- -- 93
2020-03-30 22:00:00 7.6 19 Sudeste 27 Sudeste 0 -- -- 91
2020-03-30 21:00:00 7.9 14 Este 29 Sudeste 0 -- -- 91
2020-03-30 20:00:00 8.8 25 Sudeste 33 Sudeste 0.2 -- -- 91
2020-03-30 19:00:00 8.8 12 Sudeste 14 Sudeste 1.6 -- -- 90
2020-03-30 18:00:00 8.7 9 Sur 18 Sudoeste 2.4 -- -- 93
2020-03-30 17:00:00 8.8 15 Sudoeste 26 Sur 3.6 -- -- 92
2020-03-30 16:00:00 12 20 Sur 27 Sur 0 -- -- 72
2020-03-30 15:00:00 13.7 13 Sur 27 Sudeste 0 -- -- 61
2020-03-30 14:00:00 13.4 18 Sudeste 25 Sudeste 0 -- -- 71
2020-03-30 13:00:00 12.9 14 Sudeste 23 Sudeste 0 -- -- 74
2020-03-30 12:00:00 11.7 12 Este 19 Sudeste 0 -- -- 86
2020-03-30 11:00:00 10.8 15 Sudeste 20 Este 0 -- -- 85
2020-03-30 10:00:00 9.6 14 Este 19 Este 0 -- -- 88
2020-03-30 09:00:00 8.2 11 Este 17 Este 0 -- -- 92
2020-03-30 08:00:00 8.1 7 Este 13 Este 0 -- -- 92
2020-03-30 07:00:00 7.8 4 Sudeste 5 Sudeste 0 -- -- 90
2020-03-30 06:00:00 8.7 4 Oeste 6 Sudoeste 0 -- -- 89
2020-03-30 05:00:00 8.4 5 Sudoeste 8 Sur 0 -- -- 89
2020-03-30 04:00:00 8.7 4 Sudoeste 10 Sudoeste 0 -- -- 86
2020-03-30 03:00:00 9.5 4 Sur 9 Sudeste 0 -- -- 82
2020-03-30 02:00:00 9.7 5 Sur 8 Sudoeste 0 -- -- 82
2020-03-30 01:00:00 10.7 3 Sudoeste 10 Norte 0 -- -- 80
2020-03-30 00:00:00 11.3 5 Norte 10 Norte 0 -- -- 77
2020-03-29 23:00:00 11.1 5 Sur 7 Sur 0 -- -- 80
2020-03-29 22:00:00 11.2 5 Sur 12 Sudoeste 0 -- -- 76
2020-03-29 21:00:00 10.9 8 Sur 17 Sur 0 -- -- 84
2020-03-29 20:00:00 11.9 15 Sur 25 Sur 0 -- -- 75
2020-03-29 19:00:00 14.2 12 Sur 20 Sur 0 -- -- 66
2020-03-29 18:00:00 15.3 3 Sudoeste 11 Sudeste 0 -- -- 60
2020-03-29 17:00:00 15.9 5 Sur 14 Sudoeste 0 -- -- 55
2020-03-29 16:00:00 15.4 6 Sudoeste 13 Sudoeste 0 -- -- 55
2020-03-29 15:00:00 16.2 12 Sur 16 Sur 0 -- -- 55
2020-03-29 14:00:00 15.7 4 Norte 20 Este 0 -- -- 55
2020-03-29 13:00:00 15.1 4 Sudeste 11 Oeste 0 -- -- 63
2020-03-29 12:00:00 12.9 6 Oeste 14 Sudoeste 0 -- -- 70
2020-03-29 11:00:00 11.2 7 Oeste 12 Oeste 0 -- -- 79
2020-03-29 10:00:00 8.9 5 Sudoeste 8 Sudoeste 0 -- -- 86
2020-03-29 09:00:00 7 3 Sur 7 Sudoeste 0 -- -- 87
2020-03-29 08:00:00 6.7 5 Sudoeste 10 Sudoeste 0 -- -- 87
2020-03-29 07:00:00 6.8 9 Oeste 10 Oeste 0 -- -- 86
2020-03-29 06:00:00 7.9 7 Oeste 10 Oeste 0 -- -- 82
2020-03-29 05:00:00 8.1 0 Calma 4 Oeste 0 -- -- 81
2020-03-29 03:00:00 9 6 Sudoeste 10 Sudoeste 0 -- -- 75
2020-03-29 01:00:00 9.1 6 Sur 8 Sur 0 -- -- 69
2020-03-29 00:00:00 8 3 Sur 16 Oeste 0 -- -- 73
2020-03-28 23:00:00 9.9 6 Sudeste 10 Sudeste 0 -- -- 63
2020-03-28 22:00:00 10.1 9 Sudeste 11 Sudeste 0 -- -- 58
2020-03-28 21:00:00 10.8 8 Sudeste 10 Sudeste 0 -- -- 61
2020-03-28 20:00:00 11.9 7 Sudeste 11 Sudeste 0 -- -- 63
2020-03-28 19:00:00 13.1 8 Sudeste 12 Sudeste 0 -- -- 62
2020-03-28 18:00:00 13.8 7 Sudeste 15 Sudeste 0 -- -- 58
2020-03-28 17:00:00 14.6 6 Este 20 Sudeste 0 -- -- 54
2020-03-28 16:00:00 14.8 9 Este 21 Sudeste 0 -- -- 53
2020-03-28 15:00:00 14.5 9 Este 26 Sur 0 -- -- 56
2020-03-28 14:00:00 14.7 12 Sudeste 24 Sudeste 0 -- -- 52
2020-03-28 13:00:00 13.3 11 Sudeste 24 Sudeste 0 -- -- 61
2020-03-28 12:00:00 12.7 11 Sudeste 23 Este 0 -- -- 68
2020-03-28 11:00:00 11 15 Este 26 Este 0 -- -- 71
2020-03-28 10:00:00 8.3 17 Este 24 Este 0 -- -- 79
2020-03-28 09:00:00 5.4 9 Este 15 Este 0 -- -- 88
2020-03-28 08:00:00 2.4 7 Este 22 Nordeste 0 -- -- 95
2020-03-28 07:00:00 1.5 18 Nordeste 22 Este 0 -- -- 94
2020-03-28 06:00:00 1.8 20 Este 26 Este 0 -- -- 94
2020-03-28 05:00:00 1.7 18 Nordeste 23 Nordeste 0 -- -- 94
2020-03-28 04:00:00 1.6 12 Este 18 Nordeste 0 -- -- 92
2020-03-28 03:00:00 2.2 14 Este 18 Este 0 -- -- 91
2020-03-28 02:00:00 3.3 17 Este 19 Este 0 -- -- 87
2020-03-28 01:00:00 4.4 13 Este 23 Este 0 -- -- 84
2020-03-28 00:00:00 5 21 Este 27 Este 0 -- -- 86
2020-03-27 23:00:00 5.7 22 Nordeste 28 Este 0 -- -- 84
2020-03-27 22:00:00 6.5 15 Este 23 Este 0 -- -- 83
2020-03-27 21:00:00 7.1 16 Nordeste 20 Nordeste 0 -- -- 87
2020-03-27 20:00:00 8.3 13 Nordeste 19 Nordeste 0 -- -- 82
2020-03-27 19:00:00 10.8 15 Norte 24 Norte 0 -- -- 73
2020-03-27 18:00:00 12.3 21 Norte 27 Norte 0 -- -- 66
2020-03-27 17:00:00 13 14 Norte 28 Norte 0 -- -- 65
2020-03-27 16:00:00 11.9 15 Norte 22 Noroeste 0 -- -- 70
2020-03-27 15:00:00 11.3 16 Norte 24 Noroeste 0 -- -- 73
2020-03-27 14:00:00 11.3 12 Noroeste 21 Noroeste 0 -- -- 74
2020-03-27 13:00:00 10.8 6 Noroeste 17 Noroeste 0 -- -- 77
2020-03-27 12:00:00 9 8 Oeste 15 Oeste 0 -- -- 82
2020-03-27 11:00:00 6.8 9 Sur 15 Sudoeste 0 -- -- 89
2020-03-27 10:00:00 5.6 4 Noroeste 17 Oeste 0 -- -- 93
2020-03-27 09:00:00 5 12 Oeste 20 Oeste 0 -- -- 95
2020-03-27 08:00:00 4.6 15 Oeste 23 Oeste 0 -- -- 96
2020-03-27 07:00:00 4.6 17 Oeste 24 Oeste 0 -- -- 96
2020-03-27 06:00:00 4.7 16 Sudoeste 29 Oeste 0 -- -- 96
2020-03-27 05:00:00 4.9 17 Oeste 24 Sudoeste 0 -- -- 96
2020-03-27 04:00:00 4.5 15 Oeste 18 Oeste 0 -- -- 96
2020-03-27 03:00:00 4.6 12 Sudoeste 17 Sudoeste 0 -- -- 95
2020-03-27 02:00:00 5.5 13 Sudoeste 17 Sudoeste 0 -- -- 93
2020-03-27 01:00:00 6.1 12 Sudoeste 20 Oeste 0 -- -- 92
2020-03-27 00:00:00 7.1 17 Sudoeste 24 Oeste 0 -- -- 89
2020-03-26 23:00:00 7.9 16 Oeste 21 Oeste 0 -- -- 85
2020-03-26 22:00:00 9.2 12 Oeste 19 Oeste 0 -- -- 80
2020-03-26 21:00:00 10.3 15 Oeste 27 Oeste 0 -- -- 75
2020-03-26 20:00:00 11.9 21 Oeste 39 Oeste 0 -- -- 67
2020-03-26 19:00:00 14.6 30 Oeste 46 Oeste 0 -- -- 56
2020-03-26 18:00:00 16 30 Oeste 43 Oeste 0 -- -- 52
2020-03-26 17:00:00 16.5 30 Oeste 40 Oeste 0 -- -- 54
2020-03-26 16:00:00 16.2 27 Oeste 38 Oeste 0 -- -- 58
2020-03-26 15:00:00 16 24 Oeste 37 Oeste 0 -- -- 65
2020-03-26 14:00:00 15.9 23 Oeste 32 Noroeste 0 -- -- 58
2020-03-26 13:00:00 14.9 18 Oeste 26 Oeste 0 -- -- 68
2020-03-26 12:00:00 12.8 15 Oeste 24 Oeste 0 -- -- 78
2020-03-26 11:00:00 10.4 15 Oeste 21 Oeste 0 -- -- 95
2020-03-26 10:00:00 8.1 13 Oeste 20 Oeste 0 -- -- 98
2020-03-26 09:00:00 7.5 15 Oeste 21 Oeste 0 -- -- 98
2020-03-26 08:00:00 7.4 15 Oeste 19 Oeste 0 -- -- 97
2020-03-26 07:00:00 7.7 9 Oeste 15 Oeste 0 -- -- 97
2020-03-26 06:00:00 7.9 10 Oeste 15 Oeste 0 -- -- 97
2020-03-26 05:00:00 8.8 11 Oeste 20 Oeste 0 -- -- 97
2020-03-26 04:00:00 9.2 15 Oeste 19 Oeste 0 -- -- 96
2020-03-26 03:00:00 9.2 13 Oeste 20 Oeste 0 -- -- 95
2020-03-26 02:00:00 10.4 13 Oeste 20 Oeste 0 -- -- 95
2020-03-26 01:00:00 10.5 11 Sudoeste 19 Sudoeste 0 -- -- 95
2020-03-26 00:00:00 10.4 14 Oeste 23 Oeste 0 -- -- 94
2020-03-25 23:00:00 10 11 Oeste 19 Oeste 0 -- -- 91
2020-03-25 22:00:00 10.9 14 Oeste 18 Oeste 0 -- -- 86
2020-03-25 21:00:00 11.5 13 Sudoeste 22 Oeste 0 -- -- 83
2020-03-25 20:00:00 12.9 14 Oeste 17 Oeste 0 -- -- 74
2020-03-25 19:00:00 16 11 Oeste 22 Noroeste 0 -- -- 63
2020-03-25 18:00:00 16.8 14 Oeste 28 Oeste 0 -- -- 56
2020-03-25 17:00:00 17 15 Noroeste 25 Noroeste 0 -- -- 53
2020-03-25 16:00:00 16.9 13 Noroeste 23 Noroeste 0 -- -- 52
2020-03-25 15:00:00 15.7 10 Noroeste 22 Oeste 0 -- -- 57
2020-03-25 14:00:00 15.8 6 Oeste 16 Noroeste 0 -- -- 64
2020-03-25 13:00:00 15.4 9 Oeste 18 Noroeste 0 -- -- 66
2020-03-25 12:00:00 14 10 Oeste 20 Oeste 0 -- -- 69
2020-03-25 11:00:00 12.6 9 Oeste 14 Oeste 0 -- -- 75
2020-03-25 10:00:00 10.4 0 Calma 8 Este 0 -- -- 81
2020-03-25 09:00:00 8.4 7 Este 13 Este 0 -- -- 89
2020-03-25 08:00:00 7.5 12 Nordeste 16 Nordeste 0 -- -- 90
2020-03-25 07:00:00 7.3 8 Norte 18 Norte 0 -- -- 92
2020-03-25 06:00:00 7.2 15 Este 22 Este 0 -- -- 91
2020-03-25 05:00:00 7.1 18 Este 23 Nordeste 0 -- -- 91
2020-03-25 04:00:00 7 18 Nordeste 23 Nordeste 0 -- -- 91
2020-03-25 03:00:00 7.6 13 Nordeste 18 Este 0 -- -- 91
2020-03-25 02:00:00 7.5 18 Este 21 Este 0 -- -- 90
2020-03-25 01:00:00 7.9 17 Este 23 Este 0 -- -- 88
2020-03-25 00:00:00 8.3 18 Este 36 Este 0 -- -- 87
2020-03-24 23:00:00 8.9 24 Nordeste 32 Nordeste 0 -- -- 85
2020-03-24 22:00:00 10.2 27 Nordeste 41 Nordeste 0 -- -- 80
2020-03-24 21:00:00 12.2 26 Nordeste 34 Nordeste 0 -- -- 75
2020-03-24 20:00:00 13.1 15 Nordeste 23 Nordeste 0 -- -- 76
2020-03-24 19:00:00 14 19 Nordeste 32 Nordeste 0 -- -- 71
2020-03-24 18:00:00 14.8 19 Nordeste 30 Nordeste 0 -- -- 70
2020-03-24 17:00:00 15.3 25 Nordeste 35 Nordeste 0 -- -- 64
2020-03-24 16:00:00 15.3 27 Nordeste 38 Nordeste 0 -- -- 61
2020-03-24 15:00:00 15.1 28 Nordeste 39 Nordeste 0 -- -- 64
2020-03-24 14:00:00 15.6 32 Nordeste 41 Nordeste 0 -- -- 64
2020-03-24 13:00:00 13.8 30 Nordeste 40 Nordeste 0 -- -- 68
2020-03-24 12:00:00 13.7 24 Nordeste 41 Nordeste 0 -- -- 73
2020-03-24 11:00:00 12.8 34 Nordeste 48 Nordeste 0 -- -- 76
2020-03-24 10:00:00 10.6 37 Nordeste 48 Nordeste 0 -- -- 86
2020-03-24 09:00:00 8.9 21 Nordeste 30 Nordeste 0 -- -- 94
2020-03-24 08:00:00 6.4 15 Nordeste 21 Nordeste 0 -- -- 98
2020-03-24 07:00:00 6.2 14 Nordeste 17 Nordeste 0.2 -- -- 97
2020-03-24 06:00:00 6.2 14 Nordeste 17 Nordeste 0 -- -- 96
2020-03-24 05:00:00 5.6 5 Noroeste 21 Nordeste 0 -- -- 96
2020-03-24 04:00:00 6.1 17 Nordeste 21 Nordeste 0 -- -- 96
2020-03-24 03:00:00 6.2 6 Nordeste 18 Este 0 -- -- 93
2020-03-24 02:00:00 6.6 14 Este 17 Nordeste 0 -- -- 94
2020-03-24 01:00:00 7 8 Nordeste 14 Nordeste 0 -- -- 94
2020-03-24 00:00:00 7.5 6 Este 22 Este 0.2 -- -- 92
2020-03-23 23:00:00 8.2 12 Este 30 Este 0.4 -- -- 91
2020-03-23 22:00:00 8.8 20 Sudeste 30 Sudeste 0.4 -- -- 88
2020-03-23 21:00:00 8.5 10 Nordeste 15 Nordeste 0 -- -- 86
2020-03-23 20:00:00 9.1 12 Nordeste 16 Nordeste 0 -- -- 82
2020-03-23 19:00:00 11.2 15 Nordeste 22 Nordeste 0 -- -- 73
2020-03-23 18:00:00 11.7 15 Nordeste 23 Nordeste 0 -- -- 70
2020-03-23 17:00:00 11 11 Nordeste 47 Nordeste 1.8 -- -- 73
2020-03-23 16:00:00 10.1 30 Nordeste 56 Nordeste 0.4 -- -- 77
2020-03-23 15:00:00 14 20 Nordeste 34 Nordeste 0 -- -- 58
2020-03-23 14:00:00 13.7 19 Nordeste 28 Nordeste 0 -- -- 64
2020-03-23 13:00:00 12 12 Este 22 Este 0 -- -- 68
2020-03-23 12:00:00 11.9 14 Nordeste 24 Nordeste 0 -- -- 69
2020-03-23 11:00:00 10.9 16 Nordeste 24 Nordeste 0 -- -- 77
2020-03-23 10:00:00 10.1 17 Nordeste 23 Este 0 -- -- 82
2020-03-23 09:00:00 7.5 13 Nordeste 18 Nordeste 0 -- -- 95
2020-03-23 08:00:00 6.5 5 Nordeste 10 Este 0 -- -- 94
2020-03-23 07:00:00 6.9 10 Este 10 Este 0 -- -- 89
2020-03-23 06:00:00 7.6 6 Este 9 Este 0 -- -- 92
2020-03-23 05:00:00 7.8 3 Este 6 Este 0 -- -- 92
2020-03-23 04:00:00 8 6 Este 8 Este 0 -- -- 90
2020-03-23 03:00:00 8.2 4 Sudeste 6 Sudeste 0 -- -- 87
2020-03-23 02:00:00 8.2 3 Sudeste 10 Este 0 -- -- 89
2020-03-23 01:00:00 8.1 5 Sudeste 9 Norte 0.2 -- -- 91
2020-03-23 00:00:00 8.3 9 Norte 14 Norte 0 -- -- 89
2020-03-22 23:00:00 8.8 0 Calma 6 Norte 0 -- -- 82
2020-03-22 22:00:00 9.4 5 Norte 8 Noroeste 0 -- -- 80
2020-03-22 21:00:00 10.2 3 Oeste 13 Norte 0 -- -- 75
2020-03-22 20:00:00 10.7 5 Oeste 13 Noroeste 0 -- -- 75
2020-03-22 19:00:00 12.4 4 Noroeste 16 Noroeste 0 -- -- 63
2020-03-22 18:00:00 10.9 17 Noroeste 24 Noroeste 0 -- -- 74
2020-03-22 17:00:00 12 10 Nordeste 20 Norte 0 -- -- 59
2020-03-22 16:00:00 13 13 Nordeste 26 Norte 0 -- -- 59
2020-03-22 15:00:00 11.8 19 Nordeste 31 Nordeste 0 -- -- 72
2020-03-22 14:00:00 11.1 17 Norte 27 Nordeste 0 -- -- 74
2020-03-22 13:00:00 11.3 12 Este 21 Este 0 -- -- 70
2020-03-22 12:00:00 9.5 8 Este 20 Este 0 -- -- 77
2020-03-22 11:00:00 8.8 14 Este 24 Nordeste 0 -- -- 83
2020-03-22 10:00:00 7.1 15 Este 24 Nordeste 0 -- -- 91
2020-03-22 09:00:00 6.4 9 Nordeste 14 Nordeste 0 -- -- 95
2020-03-22 08:00:00 5.2 6 Este 10 Nordeste 0 -- -- 96
2020-03-22 07:00:00 5.6 6 Este 17 Este 0 -- -- 95
2020-03-22 06:00:00 5.6 11 Este 17 Este 0 -- -- 96
2020-03-22 05:00:00 5.8 9 Este 14 Este 0 -- -- 96
2020-03-22 04:00:00 5.9 8 Este 14 Este 0 -- -- 96
2020-03-22 03:00:00 6 9 Este 19 Sudeste 0 -- -- 95
2020-03-22 02:00:00 6.1 10 Este 16 Este 0.2 -- -- 95
2020-03-22 01:00:00 6.2 8 Este 12 Este 0.2 -- -- 95
2020-03-22 00:00:00 6.4 8 Sudeste 10 Sudeste 0.2 -- -- 94
2020-03-21 23:00:00 6.2 7 Sur 14 Sur 0 -- -- 93
2020-03-21 22:00:00 6.3 10 Sudeste 13 Sudeste 0 -- -- 93
2020-03-21 21:00:00 6 8 Sudeste 10 Sudeste 0 -- -- 94
2020-03-21 20:00:00 5.9 0 Calma 16 Sudeste 0.4 -- -- 93
2020-03-21 19:00:00 6.2 15 Sudeste 30 Este 0.6 -- -- 93
2020-03-21 18:00:00 6.8 21 Este 32 Sudeste 0.2 -- -- 91
2020-03-21 17:00:00 8.3 22 Sudeste 34 Este 0.2 -- -- 89
2020-03-21 16:00:00 8.3 27 Sudeste 41 Sudeste 0 -- -- 83
2020-03-21 15:00:00 8.5 25 Sudeste 37 Sudeste 0.2 -- -- 85
2020-03-21 14:00:00 8.7 22 Sudeste 40 Sudeste 0.2 -- -- 86
2020-03-21 13:00:00 10.7 26 Sudeste 32 Sudeste 0 -- -- 72
2020-03-21 12:00:00 10.2 17 Sur 33 Sur 0 -- -- 74
2020-03-21 11:00:00 10.1 24 Sur 35 Sur 0 -- -- 74
2020-03-21 10:00:00 8.6 18 Sur 27 Sur 0 -- -- 83
2020-03-21 09:00:00 6.9 12 Sudeste 22 Sudeste 0 -- -- 90
2020-03-21 08:00:00 4.7 7 Sudeste 13 Sudoeste 0 -- -- 95
2020-03-21 07:00:00 4.6 11 Sudoeste 15 Sudoeste 0 -- -- 96
2020-03-21 06:00:00 5.1 6 Sudoeste 21 Sudoeste 0 -- -- 96
2020-03-21 05:00:00 6.4 18 Sudoeste 25 Sudoeste 0.2 -- -- 97
2020-03-21 04:00:00 7 19 Oeste 26 Oeste 0.2 -- -- 97
2020-03-21 03:00:00 7.6 15 Sudoeste 21 Sudoeste 1.6 -- -- 97
2020-03-21 02:00:00 8.5 13 Oeste 21 Oeste 2.6 -- -- 96
2020-03-21 01:00:00 8.6 8 Sudoeste 33 Sudoeste 6.6 -- -- 96
2020-03-21 00:00:00 9 8 Oeste 26 Sur 5.2 -- -- 95
2020-03-20 23:00:00 10.2 17 Sur 24 Sur 6.2 -- -- 94
2020-03-20 22:00:00 10.7 14 Sur 38 Sur 3 -- -- 91
2020-03-20 21:00:00 12.2 17 Sudeste 26 Sudeste 0 -- -- 86
2020-03-20 20:00:00 12.3 12 Sudeste 18 Sudeste 0 -- -- 87
2020-03-20 19:00:00 12.9 10 Sudeste 16 Sudeste 0 -- -- 86
2020-03-20 18:00:00 13.1 13 Sudeste 20 Sur 0 -- -- 83
2020-03-20 17:00:00 12.6 17 Sudeste 23 Sudeste 0 -- -- 85
2020-03-20 16:00:00 11.9 17 Sudeste 35 Sudeste 1.2 -- -- 90
2020-03-20 15:00:00 13.9 19 Sudeste 27 Sudeste 0 -- -- 76
2020-03-20 14:00:00 14 21 Sudeste 28 Sudeste 0 -- -- 71
2020-03-20 13:00:00 14.2 15 Sudeste 28 Sudeste 0 -- -- 72
2020-03-20 12:00:00 13.5 19 Sudeste 27 Este 0 -- -- 77
2020-03-20 11:00:00 11.8 15 Este 22 Sudeste 0 -- -- 87
2020-03-20 10:00:00 11.2 13 Este 20 Este 0 -- -- 88
2020-03-20 09:00:00 10.4 10 Este 15 Este 0 -- -- 90
2020-03-20 08:00:00 10.4 5 Sudeste 10 Sudeste 0 -- -- 90
2020-03-20 07:00:00 9.9 9 Sudeste 13 Sudeste 0 -- -- 90
2020-03-20 06:00:00 10.1 9 Sudeste 18 Sudeste 0 -- -- 88
2020-03-20 05:00:00 10.7 14 Sudeste 21 Sudeste 0 -- -- 86
2020-03-20 04:00:00 10.9 16 Sudeste 19 Sudeste 0 -- -- 84
2020-03-20 03:00:00 11.5 15 Este 22 Sudeste 0 -- -- 82
2020-03-20 02:00:00 12 18 Sudeste 21 Sudeste 0 -- -- 78
2020-03-20 01:00:00 12.3 17 Sudeste 26 Sudeste 0 -- -- 78
2020-03-20 00:00:00 12.5 18 Sudeste 23 Sudeste 0 -- -- 76
2020-03-19 23:00:00 12.8 10 Sudeste 12 Sudeste 0 -- -- 73
2020-03-19 22:00:00 13.6 8 Sudeste 9 Sudeste 0 -- -- 70
2020-03-19 21:00:00 14.4 9 Sudeste 16 Sudeste 0 -- -- 69
2020-03-19 20:00:00 14.9 12 Este 13 Este 0 -- -- 64
2020-03-19 19:00:00 16.2 9 Nordeste 13 Nordeste 0 -- -- 60
2020-03-19 18:00:00 16.9 6 Norte 8 Norte 0 -- -- 59
2020-03-19 17:00:00 17.1 5 Norte 11 Este 0 -- -- 55
2020-03-19 16:00:00 17.1 7 Este 16 Este 0 -- -- 56
2020-03-19 15:00:00 16.8 8 Este 19 Este 0 -- -- 57
2020-03-19 14:00:00 16.9 12 Nordeste 18 Nordeste 0 -- -- 57
2020-03-19 13:00:00 15.2 9 Nordeste 15 Este 0 -- -- 64
2020-03-19 12:00:00 14.1 8 Este 17 Este 0 -- -- 70
2020-03-19 11:00:00 13.1 13 Este 22 Este 0 -- -- 75
2020-03-19 10:00:00 12.2 15 Este 21 Este 0 -- -- 81
2020-03-19 09:00:00 9.5 16 Nordeste 20 Este 0 -- -- 91
2020-03-19 08:00:00 7.6 13 Este 15 Este 0 -- -- 91
2020-03-19 07:00:00 7.4 10 Nordeste 17 Este 0 -- -- 86
2020-03-19 06:00:00 8.4 9 Este 12 Este 0 -- -- 88
2020-03-19 05:00:00 9 13 Este 21 Este 0 -- -- 83
2020-03-19 04:00:00 9.9 15 Este 21 Este 0 -- -- 81
2020-03-19 03:00:00 10.1 13 Este 26 Este 0 -- -- 79
2020-03-19 02:00:00 10.4 21 Este 25 Este 0 -- -- 79
2020-03-19 01:00:00 9.5 19 Nordeste 22 Este 0 -- -- 82
2020-03-19 00:00:00 10.1 20 Nordeste 23 Nordeste 0 -- -- 80
2020-03-18 23:00:00 11.7 19 Este 40 Este 0 -- -- 75
2020-03-18 22:00:00 12.7 30 Este 37 Este 0 -- -- 72
2020-03-18 21:00:00 13.8 24 Nordeste 31 Nordeste 0 -- -- 70
2020-03-18 20:00:00 15.3 22 Nordeste 27 Nordeste 0 -- -- 62
2020-03-18 19:00:00 18 20 Nordeste 32 Este 0 -- -- 51
2020-03-18 18:00:00 19.9 24 Este 35 Este 0 -- -- 45
2020-03-18 17:00:00 20.4 24 Nordeste 36 Nordeste 0 -- -- 47
2020-03-18 16:00:00 19.9 25 Nordeste 36 Este 0 -- -- 50
2020-03-18 15:00:00 19.2 23 Nordeste 35 Este 0 -- -- 54
2020-03-18 14:00:00 18.5 19 Nordeste 36 Nordeste 0 -- -- 56
2020-03-18 13:00:00 15.8 28 Este 41 Nordeste 0 -- -- 68
2020-03-18 12:00:00 15 35 Nordeste 44 Este 0 -- -- 67
2020-03-18 11:00:00 13.1 38 Este 44 Nordeste 0 -- -- 73
2020-03-18 10:00:00 11.4 29 Este 39 Nordeste 0 -- -- 79
2020-03-18 09:00:00 9.7 32 Este 43 Este 0 -- -- 86
2020-03-18 08:00:00 8.6 31 Este 44 Nordeste 0 -- -- 88
2020-03-18 07:00:00 8.7 27 Este 45 Este 0 -- -- 89
2020-03-18 06:00:00 9 34 Este 43 Este 0 -- -- 90
2020-03-18 05:00:00 9.2 29 Este 41 Nordeste 0 -- -- 92
2020-03-18 04:00:00 9 28 Nordeste 36 Este 0 -- -- 94
2020-03-18 03:00:00 9.5 26 Este 37 Este 0 -- -- 90
2020-03-18 02:00:00 9.4 25 Este 39 Nordeste 0 -- -- 89
2020-03-18 01:00:00 9.2 26 Este 33 Este 0 -- -- 87
2020-03-18 00:00:00 7.9 6 Este 22 Nordeste 0 -- -- 79
2020-03-17 23:00:00 7.5 10 Nordeste 14 Nordeste 0 -- -- 81
2020-03-17 22:00:00 8 16 Nordeste 20 Nordeste 0 -- -- 78
2020-03-17 21:00:00 9.5 14 Nordeste 22 Nordeste 0 -- -- 73
2020-03-17 20:00:00 11.5 14 Este 23 Este 0 -- -- 53
2020-03-17 19:00:00 13.5 17 Este 37 Nordeste 0 -- -- 45
2020-03-17 18:00:00 14.1 28 Nordeste 41 Nordeste 0 -- -- 48
2020-03-17 17:00:00 14.7 26 Este 42 Este 0 -- -- 40
2020-03-17 16:00:00 14 25 Este 42 Sudeste 0 -- -- 45
2020-03-17 15:00:00 14 28 Este 44 Este 0 -- -- 48
2020-03-17 14:00:00 12.4 21 Este 40 Este 0 -- -- 59
2020-03-17 13:00:00 11.4 29 Este 46 Este 0 -- -- 63
2020-03-17 12:00:00 8.8 26 Este 45 Este 0 -- -- 74
2020-03-17 11:00:00 8.1 29 Este 41 Este 0 -- -- 79
2020-03-17 10:00:00 5.5 25 Este 50 Este 0.2 -- -- 91
2020-03-17 09:00:00 5.1 29 Este 42 Este 0 -- -- 93
2020-03-17 08:00:00 3.9 19 Nordeste 26 Nordeste 0 -- -- 95
2020-03-17 07:00:00 3.4 17 Nordeste 24 Nordeste 0 -- -- 94
2020-03-17 06:00:00 3.6 13 Este 27 Este 0 -- -- 95
2020-03-17 05:00:00 3.6 20 Este 27 Este 0.2 -- -- 94
2020-03-17 04:00:00 3.7 21 Nordeste 28 Nordeste 0.2 -- -- 94
2020-03-17 03:00:00 3.8 14 Norte 18 Norte 0 -- -- 95
2020-03-17 02:00:00 3.4 11 Norte 14 Norte 0 -- -- 95
2020-03-17 01:00:00 3.2 9 Noroeste 17 Norte 0 -- -- 94
2020-03-17 00:00:00 3.9 17 Norte 23 Norte 0 -- -- 92
2020-03-16 23:00:00 4.2 13 Noroeste 27 Norte 0 -- -- 91
2020-03-16 22:00:00 5.1 18 Noroeste 38 Noroeste 0.2 -- -- 93
2020-03-16 21:00:00 5.3 23 Noroeste 37 Noroeste 0.4 -- -- 94
2020-03-16 20:00:00 5.3 18 Noroeste 42 Noroeste 0.4 -- -- 94
2020-03-16 19:00:00 5.4 36 Noroeste 68 Noroeste 0.4 -- -- 89
2020-03-16 18:00:00 7 37 Noroeste 64 Noroeste 0.2 -- -- 77
2020-03-16 17:00:00 7.3 35 Noroeste 64 Noroeste 0 -- -- 81
2020-03-16 16:00:00 9.4 45 Noroeste 61 Noroeste 0 -- -- 54
2020-03-16 15:00:00 9.3 47 Noroeste 66 Noroeste 0 -- -- 55
2020-03-16 14:00:00 9.2 35 Noroeste 49 Noroeste 0 -- -- 55
2020-03-16 13:00:00 8.7 33 Noroeste 55 Noroeste 0 -- -- 55
2020-03-16 12:00:00 8.1 26 Oeste 40 Noroeste 0 -- -- 58
2020-03-16 11:00:00 7.1 30 Noroeste 40 Noroeste 0 -- -- 62
2020-03-16 10:00:00 5.3 23 Oeste 31 Oeste 0 -- -- 73
2020-03-16 09:00:00 3 17 Oeste 23 Noroeste 0 -- -- 91
2020-03-16 08:00:00 1.2 12 Oeste 21 Oeste 0 -- -- 93
2020-03-16 07:00:00 0.8 12 Oeste 22 Oeste 0 -- -- 91
2020-03-16 06:00:00 1 12 Oeste 21 Oeste 0 -- -- 89
2020-03-16 05:00:00 1.6 19 Oeste 22 Oeste 0 -- -- 89
2020-03-16 04:00:00 1.7 12 Oeste 28 Noroeste 0 -- -- 89
2020-03-16 03:00:00 3.2 25 Noroeste 31 Noroeste 0 -- -- 83
2020-03-16 02:00:00 4.1 17 Oeste 39 Oeste 0 -- -- 82
2020-03-16 01:00:00 6.6 30 Oeste 39 Oeste 0 -- -- 68
2020-03-16 00:00:00 8.4 27 Noroeste 43 Noroeste 0 -- -- 69
2020-03-15 23:00:00 9.8 24 Oeste 42 Noroeste 0 -- -- 76
2020-03-15 22:00:00 12.5 27 Oeste 36 Oeste 0 -- -- 63
2020-03-15 21:00:00 13.4 25 Oeste 38 Oeste 0 -- -- 76
2020-03-15 20:00:00 13.6 24 Oeste 38 Oeste 0 -- -- 78
2020-03-15 19:00:00 16 30 Oeste 41 Oeste 0 -- -- 69
2020-03-15 18:00:00 18.4 30 Oeste 42 Oeste 0 -- -- 56
2020-03-15 17:00:00 20 29 Oeste 39 Oeste 0 -- -- 53
2020-03-15 16:00:00 20.3 22 Sudoeste 33 Oeste 0 -- -- 52
2020-03-15 15:00:00 20.2 13 Sudoeste 33 Sudoeste 0 -- -- 53
2020-03-15 14:00:00 20.1 18 Sudoeste 29 Sudoeste 0 -- -- 54
2020-03-15 13:00:00 19 16 Oeste 28 Oeste 0 -- -- 60
2020-03-15 12:00:00 18.3 13 Oeste 23 Oeste 0 -- -- 64
2020-03-15 11:00:00 16.4 11 Oeste 16 Oeste 0 -- -- 73
2020-03-15 10:00:00 14 3 Sudeste 12 Sudeste 0 -- -- 79
2020-03-15 09:00:00 12 6 Este 10 Sudeste 0 -- -- 86
2020-03-15 08:00:00 11.3 9 Sudeste 10 Sudeste 0 -- -- 86
2020-03-15 07:00:00 11.5 6 Sudeste 11 Sudeste 0 -- -- 82
2020-03-15 06:00:00 12.2 4 Sudeste 9 Sudeste 0 -- -- 73
2020-03-15 05:00:00 13.1 2 Sur 4 Sudeste 0 -- -- 69
2020-03-15 04:00:00 12.6 0 Calma 5 Oeste 0 -- -- 71
2020-03-15 03:00:00 13.7 3 Sudeste 9 Sudeste 0 -- -- 67
2020-03-15 02:00:00 13.1 8 Sudeste -- -- 0 -- -- 71
2020-03-15 01:00:00 14 3 Sudeste 4 Sudeste 0 -- -- 68
2020-03-15 00:00:00 14.2 3 Sur 6 Noroeste 0 -- -- 68
2020-03-14 23:00:00 15.2 7 Norte 9 Noroeste 0 -- -- 64
2020-03-14 22:00:00 15.7 6 Norte 12 Norte 0 -- -- 65
2020-03-14 21:00:00 16.7 12 Norte 18 Norte 0 -- -- 62
2020-03-14 20:00:00 18.2 2 Oeste 13 Sudoeste 0 -- -- 64
2020-03-14 19:00:00 19.1 6 Sudoeste 9 Sudoeste 0 -- -- 62
2020-03-14 18:00:00 20.2 8 Sur 11 Sur 0 -- -- 59
2020-03-14 17:00:00 22 10 Sudeste 13 Sudeste 0 -- -- 45
2020-03-14 16:00:00 21.3 3 Noroeste 12 Noroeste 0 -- -- 44
2020-03-14 15:00:00 22.3 4 Norte 15 Norte 0 -- -- 46
2020-03-14 14:00:00 21.6 7 Nordeste 12 Norte 0 -- -- 50
2020-03-14 13:00:00 20.3 5 Sur 13 Sudoeste 0 -- -- 50
2020-03-14 12:00:00 18.6 6 Sur 12 Sur 0 -- -- 60
2020-03-14 11:00:00 16.1 5 Sudeste 8 Sudeste 0 -- -- 78
2020-03-14 10:00:00 13 7 Este 14 Este 0 -- -- 97
2020-03-14 09:00:00 9.1 12 Nordeste 15 Este 0 -- -- 95
2020-03-14 08:00:00 11 10 Sudeste 13 Sudeste 0 -- -- 95
2020-03-14 07:00:00 10.3 11 Sudeste 13 Sudeste 0 -- -- 95
2020-03-14 06:00:00 10.3 4 Sudeste 8 Sudeste 0 -- -- 94
2020-03-14 05:00:00 10.4 5 Sudeste 8 Sudeste 0 -- -- 94
2020-03-14 04:00:00 10.3 5 Sudeste 6 Sudeste 0 -- -- 91
2020-03-14 03:00:00 10.3 2 Sudeste 6 Sudeste 0 -- -- 91
2020-03-14 02:00:00 10.5 3 Sur 5 Oeste 0 -- -- 87
2020-03-14 01:00:00 10.4 3 Oeste 4 Oeste 0 -- -- 87
2020-03-14 00:00:00 10.6 3 Noroeste 5 Noroeste 0 -- -- 87
2020-03-13 23:00:00 11.2 0 Calma 6 Oeste 0 -- -- 81
2020-03-13 22:00:00 11.9 3 Oeste 8 Noroeste 0 -- -- 80
2020-03-13 21:00:00 12.5 6 Noroeste 14 Noroeste 0 -- -- 80
2020-03-13 20:00:00 14.1 10 Oeste 16 Oeste 0 -- -- 63
2020-03-13 19:00:00 17.3 14 Oeste 22 Noroeste 0 -- -- 59
2020-03-13 18:00:00 19.5 18 Noroeste 23 Noroeste 0 -- -- 50
2020-03-13 17:00:00 20.3 15 Noroeste 25 Noroeste 0 -- -- 52
2020-03-13 16:00:00 20.2 12 Oeste 31 Oeste 0 -- -- 53
2020-03-13 15:00:00 19.8 18 Oeste 27 Oeste 0 -- -- 55
2020-03-13 14:00:00 19 15 Noroeste 23 Noroeste 0 -- -- 61
2020-03-13 13:00:00 17.8 14 Oeste 23 Oeste 0 -- -- 63
2020-03-13 12:00:00 15.1 10 Noroeste 15 Oeste 0 -- -- 78
2020-03-13 11:00:00 12.7 7 Oeste 11 Noroeste 0 -- -- 87
2020-03-13 10:00:00 12.3 6 Oeste 10 Sudoeste 0 -- -- 91
2020-03-13 09:00:00 10 6 Sur 9 Sudoeste 0 -- -- 93
2020-03-13 08:00:00 9.8 3 Oeste 7 Noroeste 0 -- -- 90
2020-03-13 07:00:00 10.4 0 Calma 8 Sur 0 -- -- 89
2020-03-13 06:00:00 11.9 4 Sur 6 Sur 0 -- -- 84
2020-03-13 05:00:00 11.5 5 Sudeste 6 Sur 0 -- -- 85
2020-03-13 04:00:00 12.2 5 Sur 6 Sur 0 -- -- 81
2020-03-13 03:00:00 12.7 4 Sudoeste 8 Sudoeste 0 -- -- 79
2020-03-13 02:00:00 13.3 5 Sur 8 Sur 0 -- -- 76
2020-03-13 01:00:00 13.8 4 Sur 6 Sur 0 -- -- 73
2020-03-13 00:00:00 14.2 3 Sur 5 Sur 0 -- -- 71
2020-03-12 23:00:00 14.5 5 Sudeste 6 Sudoeste 0 -- -- 66
2020-03-12 22:00:00 15.1 2 Sudoeste 8 Oeste 0 -- -- 62
2020-03-12 21:00:00 15.8 5 Sudoeste 11 Oeste 0 -- -- 58
2020-03-12 20:00:00 17 5 Sudeste 10 Sur 0 -- -- 56
2020-03-12 19:00:00 18.8 8 Sudoeste 17 Sudoeste 0 -- -- 51
2020-03-12 18:00:00 19.1 13 Sudoeste 23 Sudoeste 0 -- -- 54
2020-03-12 17:00:00 19.4 15 Sudoeste 26 Sudoeste 0 -- -- 51
2020-03-12 16:00:00 23 22 Sudoeste 29 Sur 0 -- -- 37
2020-03-12 15:00:00 24.2 19 Sur 29 Sudeste 0 -- -- 35
2020-03-12 14:00:00 22.3 22 Sudeste 32 Sudeste 0 -- -- 42
2020-03-12 13:00:00 21.1 21 Sur 33 Sudeste 0 -- -- 42
2020-03-12 12:00:00 19.9 19 Sudeste 34 Sur 0 -- -- 46
2020-03-12 11:00:00 19.3 21 Sudeste 36 Sur 0 -- -- 46
2020-03-12 10:00:00 17.7 17 Sur 26 Sur 0 -- -- 49
2020-03-12 09:00:00 14.4 8 Este 22 Sudeste 0 -- -- 59
2020-03-12 08:00:00 15.5 17 Sudeste 29 Sudeste 0 -- -- 53
2020-03-12 07:00:00 15.9 18 Sudeste 23 Sudeste 0 -- -- 51
2020-03-12 06:00:00 16.1 10 Sudeste 15 Sur 0 -- -- 51
2020-03-12 05:00:00 15.9 3 Sur 16 Sudeste 0 -- -- 50
2020-03-12 04:00:00 16.6 20 Sudeste 32 Sudeste 0 -- -- 47
2020-03-12 03:00:00 17.4 27 Sudeste 34 Sudeste 0 -- -- 44
2020-03-12 02:00:00 16.3 21 Sudeste 27 Sudeste 0 -- -- 51
2020-03-12 01:00:00 17.2 23 Sudeste 25 Sudeste 0 -- -- 48
2020-03-12 00:00:00 17.6 20 Sudeste 34 Sudeste 0 -- -- 47
2020-03-11 23:00:00 17 17 Sudeste 26 Sudeste 0 -- -- 50
2020-03-11 22:00:00 18.4 15 Sudeste 30 Este 0 -- -- 49
2020-03-11 21:00:00 18.8 16 Sudeste 26 Este 0 -- -- 48
2020-03-11 20:00:00 20.1 24 Este 28 Este 0 -- -- 46
2020-03-11 19:00:00 22.2 21 Sudeste 24 Sudeste 0 -- -- 40
2020-03-11 18:00:00 25.1 15 Sudeste 21 Sudeste 0 -- -- 37
2020-03-11 17:00:00 24.7 14 Sudeste 24 Sudeste 0 -- -- 40
2020-03-11 16:00:00 25.2 17 Sudeste 24 Sudeste 0 -- -- 35
2020-03-11 15:00:00 25.6 19 Sudeste 28 Sudeste 0 -- -- 35
2020-03-11 14:00:00 25.6 21 Este 32 Sudeste 0 -- -- 34
2020-03-11 13:00:00 23.6 26 Sudeste 37 Sudeste 0 -- -- 38
2020-03-11 12:00:00 23.3 16 Este 29 Este 0 -- -- 44
2020-03-11 11:00:00 21.2 17 Sudeste 22 Sudeste 0 -- -- 48
2020-03-11 10:00:00 18.6 11 Este 23 Sudeste 0 -- -- 55
2020-03-11 09:00:00 16.9 19 Sudeste 25 Este 0 -- -- 53
2020-03-11 08:00:00 16.1 15 Este 19 Este 0 -- -- 52
2020-03-11 07:00:00 15.8 10 Este 12 Este 0 -- -- 53
2020-03-11 06:00:00 15 6 Sudeste 12 Este 0 -- -- 56
2020-03-11 05:00:00 14.8 5 Sudeste 17 Este 0 -- -- 58
2020-03-11 04:00:00 16.2 15 Este 18 Este 0 -- -- 53
2020-03-11 03:00:00 17.5 12 Este 17 Este 0 -- -- 49
2020-03-11 02:00:00 17 14 Este 18 Este 0 -- -- 50
2020-03-11 01:00:00 13.8 11 Nordeste 15 Nordeste 0 -- -- 57
2020-03-11 00:00:00 15.3 8 Nordeste 10 Nordeste 0 -- -- 53
2020-03-10 23:00:00 16.3 8 Nordeste 12 Noroeste 0 -- -- 54
2020-03-10 22:00:00 18.5 9 Sudeste 11 Sudeste 0 -- -- 47
2020-03-10 21:00:00 20.3 10 Este 14 Este 0 -- -- 43
2020-03-10 20:00:00 20 12 Este 13 Este 0 -- -- 44
2020-03-10 19:00:00 21.4 9 Nordeste 14 Este 0 -- -- 49
2020-03-10 18:00:00 23.8 8 Norte 16 Norte 0 -- -- 39
2020-03-10 17:00:00 24.5 8 Nordeste 14 Nordeste 0 -- -- 36
2020-03-10 16:00:00 24 6 Norte 17 Nordeste 0 -- -- 36
2020-03-10 15:00:00 23.8 5 Norte 20 Sudeste 0 -- -- 35
2020-03-10 14:00:00 23.1 9 Este 22 Sudeste 0 -- -- 39
2020-03-10 13:00:00 21.9 11 Sudeste 22 Este 0 -- -- 40
2020-03-10 12:00:00 19.6 15 Este 24 Este 0 -- -- 42
2020-03-10 11:00:00 17.2 13 Este 20 Este 0 -- -- 46
2020-03-10 10:00:00 14 10 Sudeste 21 Este 0 -- -- 53
2020-03-10 09:00:00 11.7 16 Este 20 Este 0 -- -- 58
2020-03-10 08:00:00 8.7 15 Este 17 Nordeste 0 -- -- 68
2020-03-10 07:00:00 8.3 8 Nordeste 12 Nordeste 0 -- -- 68
2020-03-10 06:00:00 9.5 0 Calma 5 Sudeste 0 -- -- 65
2020-03-10 05:00:00 9.6 0 Calma 6 Sudoeste 0 -- -- 69
2020-03-10 04:00:00 9.9 5 Sudoeste 9 Sudoeste 0 -- -- 68
2020-03-10 03:00:00 9.9 5 Sudoeste 10 Sur 0 -- -- 68
2020-03-10 02:00:00 8.8 7 Sur 14 Noroeste 0 -- -- 71
2020-03-10 01:00:00 10.4 5 Oeste 8 Oeste 0 -- -- 62
2020-03-10 00:00:00 10.4 8 Noroeste 19 Noroeste 0 -- -- 62
2020-03-09 23:00:00 11.5 17 Noroeste 20 Noroeste 0 -- -- 56
2020-03-09 22:00:00 12 13 Noroeste 26 Noroeste 0 -- -- 52
2020-03-09 21:00:00 12.5 14 Noroeste 22 Noroeste 0 -- -- 49
2020-03-09 20:00:00 13.6 14 Noroeste 21 Noroeste 0 -- -- 42
2020-03-09 19:00:00 16.6 19 Noroeste 35 Noroeste 0 -- -- 36
2020-03-09 18:00:00 18.1 27 Noroeste 35 Noroeste 0 -- -- 30
2020-03-09 17:00:00 18.4 24 Noroeste 39 Noroeste 0 -- -- 34
2020-03-09 16:00:00 17.9 25 Noroeste 39 Noroeste 0 -- -- 33
2020-03-09 15:00:00 17.9 19 Noroeste 29 Noroeste 0 -- -- 31
2020-03-09 14:00:00 17 24 Noroeste 31 Noroeste 0 -- -- 35
2020-03-09 13:00:00 15.6 20 Noroeste 28 Noroeste 0 -- -- 45
2020-03-09 12:00:00 12.6 15 Noroeste 24 Noroeste 0 -- -- 76
2020-03-09 11:00:00 8.7 9 Oeste 15 Oeste 0 -- -- 98
2020-03-09 10:00:00 6.6 13 Noroeste 17 Oeste 0 -- -- 98
2020-03-09 09:00:00 5.8 9 Oeste 12 Oeste 0 -- -- 98
2020-03-09 08:00:00 5.2 9 Oeste 13 Oeste 0 -- -- 97
2020-03-09 07:00:00 5.3 5 Oeste 12 Oeste 0 -- -- 97
2020-03-09 06:00:00 6 10 Oeste 14 Oeste 0 -- -- 96
2020-03-09 05:00:00 5.9 11 Oeste 13 Oeste 0 -- -- 95
2020-03-09 04:00:00 6.4 7 Oeste 9 Oeste 0 -- -- 93
2020-03-09 03:00:00 7.1 6 Oeste 10 Oeste 0 -- -- 89
2020-03-09 02:00:00 7.5 7 Oeste 13 Oeste 0 -- -- 86
2020-03-09 01:00:00 7.8 9 Oeste 13 Oeste 0 -- -- 83
2020-03-09 00:00:00 8.5 9 Oeste 13 Oeste 0 -- -- 80
2020-03-08 23:00:00 9.1 8 Oeste 13 Noroeste 0 -- -- 76
2020-03-08 22:00:00 10 13 Noroeste 21 Noroeste 0 -- -- 73
2020-03-08 21:00:00 10.9 16 Noroeste 23 Noroeste 0 -- -- 68
2020-03-08 20:00:00 12.7 16 Noroeste 21 Noroeste 0 -- -- 58
2020-03-08 19:00:00 14.7 11 Noroeste 24 Oeste 0 -- -- 51
2020-03-08 18:00:00 15.7 13 Oeste 24 Oeste 0 -- -- 48
2020-03-08 17:00:00 17.5 17 Oeste 27 Noroeste 0 -- -- 45
2020-03-08 16:00:00 17.7 20 Noroeste 28 Oeste 0 -- -- 36
2020-03-08 15:00:00 17.6 13 Oeste 23 Oeste 0 -- -- 32
2020-03-08 14:00:00 16.5 17 Oeste 27 Oeste 0 -- -- 37
2020-03-08 13:00:00 15.5 6 Oeste 15 Oeste 0 -- -- 45
2020-03-08 12:00:00 13.9 5 Noroeste 9 Oeste 0 -- -- 47
2020-03-08 11:00:00 12.6 3 Oeste 8 Nordeste 0 -- -- 59
2020-03-08 10:00:00 10.1 4 Norte 14 Sudeste 0 -- -- 72
2020-03-08 09:00:00 8.2 10 Sudeste 13 Sudeste 0 -- -- 70
2020-03-08 08:00:00 7.4 2 Sudoeste 4 Oeste 0 -- -- 63
2020-03-08 07:00:00 6.8 2 Sur 5 Sudeste 0 -- -- 64
2020-03-08 06:00:00 6.8 3 Sudeste 5 Sur 0 -- -- 64
2020-03-08 05:00:00 6.8 3 Oeste 8 Noroeste 0 -- -- 64
2020-03-08 04:00:00 8.3 6 Nordeste 8 Nordeste 0 -- -- 58
2020-03-08 03:00:00 8.4 4 Sudeste 10 Sudeste 0 -- -- 59
2020-03-08 02:00:00 8.4 3 Este 9 Sudeste 0 -- -- 59
2020-03-08 01:00:00 8.7 5 Este 7 Nordeste 0 -- -- 59
2020-03-08 00:00:00 8.8 3 Nordeste 11 Norte 0 -- -- 59
2020-03-07 23:00:00 9.1 7 Norte 14 Norte 0 -- -- 58
2020-03-07 22:00:00 9.5 10 Norte 13 Norte 0 -- -- 57
2020-03-07 21:00:00 10.5 10 Norte 15 Norte 0 -- -- 56
2020-03-07 20:00:00 11.4 12 Norte 18 Noroeste 0 -- -- 55
2020-03-07 19:00:00 14.8 14 Noroeste 19 Norte 0 -- -- 47
2020-03-07 18:00:00 16.6 10 Norte 20 Norte 0 -- -- 39
2020-03-07 17:00:00 16.5 10 Norte 22 Norte 0 -- -- 40
2020-03-07 16:00:00 16.4 12 Nordeste 26 Norte 0 -- -- 41
2020-03-07 15:00:00 15.8 10 Nordeste 26 Nordeste 0 -- -- 44
2020-03-07 14:00:00 14.6 16 Este 25 Nordeste 0 -- -- 45
2020-03-07 13:00:00 13.9 15 Este 25 Nordeste 0 -- -- 49
2020-03-07 12:00:00 12.6 13 Este 28 Nordeste 0 -- -- 51
2020-03-07 11:00:00 10.3 16 Este 22 Nordeste 0 -- -- 60
2020-03-07 10:00:00 6.6 7 Nordeste 11 Nordeste 0 -- -- 76
2020-03-07 09:00:00 4.2 9 Nordeste 14 Nordeste 0 -- -- 83
2020-03-07 08:00:00 3 3 Sur 19 Norte 0 -- -- 84
2020-03-07 07:00:00 4 10 Norte 15 Norte 0 -- -- 81
2020-03-07 06:00:00 3.6 2 Sudoeste 8 Oeste 0 -- -- 87
2020-03-07 05:00:00 3.8 4 Oeste 11 Noroeste 0 -- -- 85
2020-03-07 04:00:00 4.3 14 Noroeste 21 Noroeste 0 -- -- 84
2020-03-07 03:00:00 4.7 10 Noroeste 18 Noroeste 0 -- -- 84
2020-03-07 02:00:00 5.3 9 Noroeste 27 Oeste 0 -- -- 82
2020-03-07 01:00:00 6.1 17 Noroeste 37 Noroeste 0 -- -- 79
2020-03-07 00:00:00 7 11 Noroeste 25 Noroeste 0 -- -- 75
2020-03-06 23:00:00 6.6 17 Noroeste 22 Noroeste 0 -- -- 80
2020-03-06 22:00:00 7.6 19 Noroeste 32 Noroeste 0 -- -- 77
2020-03-06 21:00:00 8.5 21 Noroeste 44 Noroeste 0 -- -- 73
2020-03-06 20:00:00 9.9 29 Noroeste 38 Noroeste 0 -- -- 66
2020-03-06 19:00:00 11.5 28 Noroeste 48 Noroeste 0 -- -- 60
2020-03-06 18:00:00 13 31 Noroeste 44 Noroeste 0 -- -- 54
2020-03-06 17:00:00 13.4 36 Noroeste 51 Noroeste 0 -- -- 53
2020-03-06 16:00:00 13.5 34 Noroeste 47 Noroeste 0 -- -- 52
2020-03-06 15:00:00 13.2 32 Noroeste 47 Noroeste 0 -- -- 57
2020-03-06 14:00:00 12.3 34 Noroeste 51 Noroeste 0 -- -- 61
2020-03-06 13:00:00 11.3 31 Noroeste 48 Noroeste 0 -- -- 63
2020-03-06 12:00:00 10.5 39 Noroeste 49 Noroeste 0 -- -- 64
2020-03-06 11:00:00 9.4 40 Noroeste 54 Noroeste 0 -- -- 70
2020-03-06 10:00:00 8.1 36 Noroeste 47 Oeste 0 -- -- 82
2020-03-06 09:00:00 7.1 25 Oeste 37 Oeste 0 -- -- 97
2020-03-06 08:00:00 6.9 28 Oeste 38 Oeste 0 -- -- 98
2020-03-06 07:00:00 6.8 26 Oeste 35 Oeste 0 -- -- 98
2020-03-06 06:00:00 6.3 21 Oeste 32 Oeste 0 -- -- 97
2020-03-06 05:00:00 5.9 17 Oeste 24 Oeste 0 -- -- 97
2020-03-06 04:00:00 4.6 13 Oeste 22 Oeste 0 -- -- 96
2020-03-06 03:00:00 4.7 14 Oeste 26 Oeste 0 -- -- 95
2020-03-06 02:00:00 5.4 21 Oeste 30 Oeste 0 -- -- 94
2020-03-06 01:00:00 5.9 25 Oeste 33 Oeste 0 -- -- 92
2020-03-06 00:00:00 6.2 23 Oeste 36 Oeste 0 -- -- 89
2020-03-05 23:00:00 7 26 Oeste 36 Oeste 0 -- -- 84
2020-03-05 22:00:00 7.7 27 Oeste 32 Oeste 0 -- -- 81
2020-03-05 21:00:00 8.4 22 Noroeste 33 Oeste 0 -- -- 81
2020-03-05 20:00:00 10.1 22 Oeste 39 Oeste 0 -- -- 74
2020-03-05 19:00:00 11.5 27 Noroeste 49 Noroeste 0 -- -- 67
2020-03-05 18:00:00 13 36 Oeste 49 Noroeste 0 -- -- 61
2020-03-05 17:00:00 13.3 35 Oeste 50 Oeste 0 -- -- 59
2020-03-05 16:00:00 13.2 32 Oeste 49 Oeste 0 -- -- 64
2020-03-05 15:00:00 12.8 35 Noroeste 48 Noroeste 0 -- -- 66
2020-03-05 14:00:00 12.5 31 Oeste 44 Oeste 0 -- -- 73
2020-03-05 13:00:00 11.1 32 Noroeste 39 Noroeste 0 -- -- 81
2020-03-05 12:00:00 10.3 24 Oeste 48 Oeste 0.2 -- -- 96
2020-03-05 11:00:00 10.4 25 Sudoeste 41 Sudoeste 0 -- -- 95
2020-03-05 10:00:00 10.6 30 Sudoeste 39 Sudoeste 0 -- -- 91
2020-03-05 09:00:00 10.1 21 Oeste 26 Oeste 0 -- -- 97
2020-03-05 08:00:00 9.7 16 Sudoeste 24 Sudoeste 0 -- -- 98
2020-03-05 07:00:00 9.8 19 Sudoeste 24 Sudoeste 0 -- -- 98
2020-03-05 06:00:00 9.7 12 Sudoeste 19 Sudoeste 0 -- -- 97
2020-03-05 05:00:00 10.1 14 Sudoeste 19 Sudoeste 0 -- -- 97
2020-03-05 04:00:00 10.3 17 Sudoeste 21 Sudoeste 0 -- -- 97
2020-03-05 03:00:00 10.5 10 Sudoeste 13 Sudoeste 0 -- -- 96
2020-03-05 02:00:00 10.2 8 Sudoeste 17 Sudoeste 0 -- -- 95
2020-03-05 01:00:00 9 9 Sudoeste 12 Sudoeste 0 -- -- 92
2020-03-05 00:00:00 9.6 7 Sudoeste 10 Sudoeste 0 -- -- 85